KUNU/UNU METAR and TAF weather

Enter ICAO airport designator
Station Type Date Time Source
KUNU METAR 2020/09/25 07:35 UTC NOAA

KUNU 250735Z AUTO 17003KT 10SM SCT070 16/14 A2992 RMK AO2 T01640141


Station Type Date Time Source
KUNU Decoded METAR 2020/09/25 07:35 UTC NOAA

Juneau, Dodge County Airport, WI, United States (KUNU) 43-25-36N 088-42-12W
Sep 25, 2020 - 03:35 AM EDT / 2020.09.25 0735 UTC
Wind: from the S (170 degrees) at 3 MPH (3 KT):0
Visibility: 10 mile(s):0
Sky conditions: partly cloudy
Temperature: 61.5 F (16.4 C)
Dew Point: 57.4 F (14.1 C)
Relative Humidity: 86%
Pressure (altimeter): 29.92 in. Hg (1013 hPa)
ob: KUNU 250735Z AUTO 17003KT 10SM SCT070 16/14 A2992 RMK AO2 T01640141
cycle: 7

Station Type Date Time Source
KUNU TAF UTC NOAA

Error!

Example: see airport list